Time;durP1;ratioP1;P1;durP2;ratioP2;P2;SDS_P1;SDS_P2;PMS_P1;PMS_P2;Temp;Humidity;BMP_temperature;BMP_pressure;BME280_temperature;BME280_humidity;BME280_pressure;Samples;Min_cycle;Max_cycle;Signal;HPM_P1;HPM_P2
2022/05/21 00:00:16;;;;;;;9.43;1.23;;;12.20;99.90;;;;;;5008533;28;20038;-65
2022/05/21 00:02:41;;;;;;;6.23;1.60;;;12.20;99.90;;;;;;5008917;28;20021;-65
2022/05/21 00:05:09;;;;;;;9.68;2.08;;;12.10;99.90;;;;;;5008483;28;20412;-65
2022/05/21 00:07:35;;;;;;;7.50;1.48;;;12.10;99.90;;;;;;5011689;28;20546;-65
2022/05/21 00:10:00;;;;;;;5.40;1.65;;;12.10;99.90;;;;;;5011557;28;20509;-65
2022/05/21 00:12:26;;;;;;;13.82;1.10;;;12.10;99.90;;;;;;5011668;28;20033;-64
2022/05/21 00:14:52;;;;;;;10.57;1.40;;;12.10;99.90;;;;;;5011501;28;20014;-65
2022/05/21 00:17:19;;;;;;;10.35;1.88;;;12.00;99.90;;;;;;5011907;28;20048;-65
2022/05/21 00:19:45;;;;;;;9.25;2.25;;;12.00;99.90;;;;;;5011321;28;20050;-65
2022/05/21 00:22:11;;;;;;;9.02;2.47;;;12.00;99.90;;;;;;5011443;28;20018;-65
2022/05/21 00:24:37;;;;;;;9.98;1.83;;;12.00;99.90;;;;;;5011312;28;20101;-65
2022/05/21 00:27:04;;;;;;;10.07;1.33;;;11.90;99.90;;;;;;5011408;28;20022;-65
2022/05/21 00:29:30;;;;;;;5.82;1.23;;;11.90;99.90;;;;;;5011076;28;20034;-65
2022/05/21 00:31:55;;;;;;;13.43;2.25;;;11.80;99.90;;;;;;5011309;28;20076;-65
2022/05/21 00:34:22;;;;;;;11.52;1.98;;;11.80;99.90;;;;;;5011502;28;20101;-65
2022/05/21 00:36:47;;;;;;;10.80;1.80;;;11.80;99.90;;;;;;5011494;28;20030;-65
2022/05/21 00:39:13;;;;;;;14.05;1.70;;;11.80;99.90;;;;;;5011215;28;20113;-65
2022/05/21 00:41:39;;;;;;;12.43;1.60;;;11.70;99.90;;;;;;5011200;28;20099;-65
2022/05/21 00:44:06;;;;;;;16.08;2.05;;;11.70;99.90;;;;;;5010920;28;20787;-65
2022/05/21 00:46:38;;;;;;;14.73;1.65;;;11.70;99.90;;;;;;5011054;28;20050;-65
2022/05/21 00:49:20;;;;;;;10.27;1.77;;;11.70;99.90;;;;;;5011001;28;20030;-65
2022/05/21 00:52:14;;;;;;;7.20;1.27;;;11.70;99.90;;;;;;5013356;28;20485;-65
2022/05/21 00:54:56;;;;;;;5.65;1.25;;;11.60;99.90;;;;;;5010784;28;20041;-65
2022/05/21 00:57:24;;;;;;;6.35;1.55;;;11.60;99.90;;;;;;5018340;28;20017;-65
2022/05/21 00:59:57;;;;;;;15.48;2.53;;;11.50;99.90;;;;;;5030247;28;20045;-65
2022/05/21 01:02:38;;;;;;;10.95;1.27;;;11.50;99.90;;;;;;5028650;28;20388;-65
2022/05/21 01:05:06;;;;;;;;;;;11.50;99.90;;;;;;5028092;28;20037;-65
2022/05/21 01:07:32;;;;;;;9.85;1.60;;;11.40;99.90;;;;;;5028931;28;19951;-65
2022/05/21 01:10:00;;;;;;;10.48;1.63;;;11.40;99.90;;;;;;5030028;28;20033;-64
2022/05/21 01:12:32;;;;;;;13.27;1.70;;;11.40;99.90;;;;;;5030372;28;20438;-64
2022/05/21 01:15:01;;;;;;;8.65;1.65;;;11.30;99.90;;;;;;5030388;28;20108;-65
2022/05/21 01:17:27;;;;;;;8.52;1.60;;;11.40;99.90;;;;;;5030333;28;20432;-65
2022/05/21 01:20:15;;;;;;;6.20;1.50;;;11.40;99.90;;;;;;5030187;28;20507;-65
2022/05/21 01:22:44;;;;;;;8.05;1.50;;;11.50;99.90;;;;;;5030258;28;20075;-65
2022/05/21 01:25:11;;;;;;;8.57;1.70;;;11.60;99.90;;;;;;5030009;28;20029;-65
2022/05/21 01:27:39;;;;;;;7.68;1.13;;;11.60;99.90;;;;;;5029927;28;20496;-65
2022/05/21 01:30:07;;;;;;;7.70;1.67;;;11.70;99.90;;;;;;5012825;28;20117;-65
2022/05/21 01:32:33;;;;;;;7.18;1.15;;;11.70;99.90;;;;;;5030040;28;20033;-65
2022/05/21 01:34:59;;;;;;;6.78;1.33;;;11.70;99.90;;;;;;5030081;28;20104;-65
2022/05/21 01:37:25;;;;;;;4.15;0.90;;;11.60;99.90;;;;;;5030084;28;20030;-64
2022/05/21 01:39:50;;;;;;;13.85;1.70;;;11.60;99.90;;;;;;5029684;28;20407;-65
2022/05/21 01:42:16;;;;;;;6.55;0.93;;;11.50;99.90;;;;;;5029956;28;20491;-65
2022/05/21 01:44:42;;;;;;;9.60;1.48;;;11.40;99.90;;;;;;5026520;28;20030;-65
2022/05/21 01:47:15;;;;;;;11.70;1.45;;;11.40;99.90;;;;;;5028965;28;20068;-65
2022/05/21 01:49:41;;;;;;;4.97;1.15;;;11.30;99.90;;;;;;5017112;28;20030;-65
2022/05/21 01:52:09;;;;;;;5.70;1.35;;;11.30;99.90;;;;;;5007027;28;20030;-65
2022/05/21 01:54:35;;;;;;;4.05;1.02;;;11.20;99.90;;;;;;5006997;28;20022;-65
2022/05/21 01:57:02;;;;;;;3.30;1.10;;;11.20;99.90;;;;;;5006979;28;20041;-65
2022/05/21 01:59:27;;;;;;;4.72;0.90;;;11.20;99.90;;;;;;5006715;28;20046;-65
2022/05/21 02:01:53;;;;;;;8.20;1.48;;;11.20;99.90;;;;;;5007274;28;20057;-65
2022/05/21 02:04:19;;;;;;;3.65;1.10;;;11.20;99.90;;;;;;5008099;28;20108;-65
2022/05/21 02:06:45;;;;;;;11.63;1.67;;;11.30;99.90;;;;;;4992634;28;20119;-64
2022/05/21 02:09:12;;;;;;;5.70;1.30;;;11.30;99.90;;;;;;5009899;28;20456;-65
2022/05/21 02:11:38;;;;;;;2.40;0.88;;;11.30;99.90;;;;;;5009794;28;20081;-65
2022/05/21 02:14:05;;;;;;;8.23;1.45;;;11.30;99.90;;;;;;5009942;28;20109;-65
2022/05/21 02:16:32;;;;;;;6.05;1.00;;;11.30;99.90;;;;;;5009705;28;20083;-64
2022/05/21 02:19:01;;;;;;;5.82;1.35;;;11.40;99.90;;;;;;5010375;28;20076;-65
2022/05/21 02:21:26;;;;;;;16.88;1.40;;;11.40;99.90;;;;;;5012182;28;20108;-65
2022/05/21 02:23:52;;;;;;;6.93;1.27;;;11.40;99.90;;;;;;5013712;28;20502;-65
2022/05/21 02:26:17;;;;;;;2.83;0.70;;;11.40;99.90;;;;;;5010515;28;20381;-65
2022/05/21 02:28:43;;;;;;;7.60;0.75;;;11.50;99.90;;;;;;5010668;28;20056;-65
2022/05/21 02:31:08;;;;;;;3.97;0.82;;;11.50;99.90;;;;;;5010610;28;20108;-65
2022/05/21 02:33:34;;;;;;;7.82;1.15;;;11.50;99.90;;;;;;5010331;28;20037;-65
2022/05/21 02:36:00;;;;;;;4.57;1.05;;;11.50;99.90;;;;;;5012772;28;20393;-65
2022/05/21 02:41:12;;;;;;;4.43;0.98;;;11.40;99.90;;;;;;5013454;28;20110;-65
2022/05/21 02:43:37;;;;;;;4.07;0.95;;;11.40;99.90;;;;;;5013324;28;20029;-65
2022/05/21 02:46:03;;;;;;;5.40;0.82;;;11.30;99.90;;;;;;5013271;28;20022;-65
2022/05/21 02:48:29;;;;;;;4.95;0.70;;;11.30;99.90;;;;;;5013208;28;20042;-65
2022/05/21 02:50:56;;;;;;;5.03;1.02;;;11.30;99.90;;;;;;5013380;28;20158;-65
2022/05/21 02:53:22;;;;;;;2.90;0.73;;;11.30;99.90;;;;;;5013267;28;20037;-65
2022/05/21 02:55:49;;;;;;;4.72;0.75;;;11.30;99.90;;;;;;5012998;28;20029;-65
2022/05/21 02:58:15;;;;;;;3.10;0.70;;;11.30;99.90;;;;;;5013415;28;20125;-65
2022/05/21 03:00:42;;;;;;;3.35;0.60;;;11.30;99.90;;;;;;5014839;28;20157;-65
2022/05/21 03:03:08;;;;;;;6.15;0.95;;;11.30;99.90;;;;;;5013006;28;20041;-65
2022/05/21 03:05:34;;;;;;;2.53;1.00;;;11.20;99.90;;;;;;5012980;28;20026;-65
2022/05/21 03:08:00;;;;;;;3.13;0.70;;;11.30;99.90;;;;;;5013141;28;20037;-65
2022/05/21 03:10:29;;;;;;;4.38;1.15;;;11.20;99.90;;;;;;5012670;28;20026;-65
2022/05/21 03:12:57;;;;;;;2.33;0.95;;;11.30;99.90;;;;;;5012996;28;20037;-65
2022/05/21 03:15:36;;;;;;;6.43;0.90;;;11.30;99.90;;;;;;5012998;28;20034;-65
2022/05/21 03:18:05;;;;;;;2.95;0.73;;;11.30;99.90;;;;;;5012633;28;20072;-65
2022/05/21 03:20:30;;;;;;;6.28;1.00;;;11.20;99.90;;;;;;5012932;28;20029;-64
2022/05/21 03:22:56;;;;;;;3.75;1.33;;;11.20;99.90;;;;;;5012654;28;20057;-65
2022/05/21 03:25:23;;;;;;;5.20;0.93;;;11.20;99.90;;;;;;5012501;28;20112;-65
2022/05/21 03:27:49;;;;;;;4.55;1.40;;;11.20;99.90;;;;;;5023480;28;20360;-65
2022/05/21 03:30:18;;;;;;;8.20;1.20;;;11.20;99.90;;;;;;5032175;28;20052;-65
2022/05/21 03:32:44;;;;;;;2.08;0.50;;;11.20;99.90;;;;;;5031999;28;20079;-65
2022/05/21 03:35:12;;;;;;;5.35;1.38;;;11.20;99.90;;;;;;5032203;28;20018;-64
2022/05/21 03:37:38;;;;;;;4.30;0.75;;;11.20;99.90;;;;;;5032399;28;20036;-65
2022/05/21 03:40:07;;;;;;;8.30;1.48;;;11.20;99.90;;;;;;5031895;28;20116;-65
2022/05/21 03:42:33;;;;;;;2.88;1.13;;;11.20;99.90;;;;;;5032305;28;20022;-65
2022/05/21 03:44:59;;;;;;;1.88;0.75;;;11.30;99.90;;;;;;5031826;28;20030;-65
2022/05/21 03:47:24;;;;;;;10.90;1.23;;;11.20;99.90;;;;;;5032068;28;20051;-65
2022/05/21 03:49:50;;;;;;;5.68;0.93;;;11.20;99.90;;;;;;5031941;28;20591;-65
2022/05/21 03:52:15;;;;;;;4.38;0.98;;;11.10;99.90;;;;;;5028715;28;20029;-65
2022/05/21 03:54:41;;;;;;;8.45;5.03;;;11.10;99.90;;;;;;5031672;28;20041;-67
2022/05/21 03:57:07;;;;;;;4.90;1.05;;;11.00;99.90;;;;;;5031650;28;20025;-65
2022/05/21 03:59:34;;;;;;;8.88;1.17;;;11.00;99.90;;;;;;5031406;28;20056;-65
2022/05/21 04:02:01;;;;;;;8.35;1.10;;;11.00;99.90;;;;;;5031366;28;20030;-65
2022/05/21 04:04:26;;;;;;;4.32;0.80;;;11.00;99.90;;;;;;5031863;28;20112;-64
2022/05/21 04:06:52;;;;;;;4.90;1.27;;;11.10;99.90;;;;;;5031455;28;20178;-65
2022/05/21 04:09:18;;;;;;;8.20;0.95;;;11.10;99.90;;;;;;5031587;28;20028;-65
2022/05/21 04:11:43;;;;;;;5.70;1.08;;;11.10;99.90;;;;;;5031609;28;20082;-65
2022/05/21 04:14:11;;;;;;;6.00;0.82;;;11.00;99.90;;;;;;5031506;28;20497;-65
2022/05/21 04:16:36;;;;;;;2.28;0.70;;;11.00;99.90;;;;;;5028819;28;20026;-65
2022/05/21 04:19:02;;;;;;;4.40;1.13;;;11.10;99.90;;;;;;5028344;28;20102;-65
2022/05/21 04:21:28;;;;;;;3.78;1.10;;;11.10;99.90;;;;;;5029597;28;20057;-65
2022/05/21 04:23:55;;;;;;;5.63;1.02;;;11.10;99.90;;;;;;5031315;28;20395;-65
2022/05/21 04:26:21;;;;;;;5.80;1.23;;;11.00;99.90;;;;;;5031087;28;20023;-65
2022/05/21 04:28:47;;;;;;;5.78;0.80;;;11.00;99.90;;;;;;5012021;28;20027;-65
2022/05/21 04:31:12;;;;;;;3.95;0.93;;;11.10;99.90;;;;;;5009768;28;20088;-65
2022/05/21 04:33:38;;;;;;;4.55;0.82;;;11.10;99.90;;;;;;5008044;28;20053;-65
2022/05/21 04:36:19;;;;;;;5.00;0.90;;;11.00;99.90;;;;;;5008014;28;20396;-65
2022/05/21 04:38:47;;;;;;;5.40;1.13;;;11.00;99.90;;;;;;5010637;28;20029;-65
2022/05/21 04:41:12;;;;;;;5.72;1.05;;;11.00;99.90;;;;;;5010950;28;20033;-65
2022/05/21 04:43:38;;;;;;;4.72;1.20;;;11.00;99.90;;;;;;5010418;28;20033;-65
2022/05/21 04:46:04;;;;;;;4.57;1.17;;;10.90;99.90;;;;;;5010828;28;20030;-65
2022/05/21 04:48:30;;;;;;;4.75;0.82;;;11.00;99.90;;;;;;5011129;28;20061;-65
2022/05/21 04:51:02;;;;;;;4.40;0.80;;;11.00;99.90;;;;;;5011046;28;20034;-65
2022/05/21 04:53:28;;;;;;;5.20;1.83;;;11.00;99.90;;;;;;5010988;28;20524;-65
2022/05/21 04:55:54;;;;;;;4.80;1.20;;;11.00;99.90;;;;;;5010727;28;20026;-65
2022/05/21 04:58:20;;;;;;;5.00;0.88;;;11.00;99.90;;;;;;5010576;28;20037;-65
2022/05/21 05:00:46;;;;;;;3.70;1.08;;;11.10;99.90;;;;;;5012122;28;20395;-65
2022/05/21 05:03:13;;;;;;;3.00;0.95;;;11.20;99.90;;;;;;5007607;28;20430;-65
2022/05/21 05:05:40;;;;;;;6.40;1.50;;;11.30;99.90;;;;;;5007480;28;20477;-65
2022/05/21 05:08:06;;;;;;;7.03;1.20;;;11.30;99.90;;;;;;5009581;28;20056;-65
2022/05/21 05:10:33;;;;;;;4.47;1.08;;;11.40;99.90;;;;;;5010283;28;20521;-65
2022/05/21 05:12:59;;;;;;;3.33;1.27;;;11.50;99.90;;;;;;5007402;28;20030;-65
2022/05/21 05:15:24;;;;;;;6.03;1.30;;;11.50;99.90;;;;;;5007255;28;20040;-65
2022/05/21 05:17:50;;;;;;;5.88;1.20;;;11.60;99.90;;;;;;5009913;28;20480;-65
2022/05/21 05:20:16;;;;;;;4.10;1.00;;;11.70;99.90;;;;;;5010422;28;20517;-65
2022/05/21 05:22:41;;;;;;;3.25;0.73;;;11.80;99.90;;;;;;5010581;28;20041;-65
2022/05/21 05:25:07;;;;;;;1.98;0.75;;;11.90;99.90;;;;;;5010116;28;20036;-65
2022/05/21 05:27:33;;;;;;;3.78;1.02;;;12.00;99.90;;;;;;5019167;28;20072;-65
2022/05/21 05:30:03;;;;;;;14.23;1.50;;;12.20;99.90;;;;;;5029833;28;20061;-65
2022/05/21 05:32:28;;;;;;;2.20;0.90;;;12.30;99.90;;;;;;5030098;28;20040;-65
2022/05/21 05:34:54;;;;;;;6.32;1.58;;;12.30;99.90;;;;;;5030099;28;20104;-65
2022/05/21 05:37:20;;;;;;;4.55;1.15;;;12.50;99.90;;;;;;5027197;28;20036;-65
2022/05/21 05:39:45;;;;;;;3.63;1.08;;;12.50;99.90;;;;;;5026797;28;20128;-65
2022/05/21 05:42:11;;;;;;;3.40;0.85;;;12.60;99.90;;;;;;5027161;28;20029;-65
2022/05/21 05:44:37;;;;;;;4.10;1.00;;;12.60;99.90;;;;;;5026771;28;20459;-65
2022/05/21 05:47:02;;;;;;;3.00;1.70;;;12.70;99.90;;;;;;5010370;28;20116;-65
2022/05/21 05:49:28;;;;;;;2.72;1.20;;;12.80;99.90;;;;;;5030156;28;20109;-65
2022/05/21 05:51:54;;;;;;;8.13;1.20;;;12.90;99.90;;;;;;5027803;28;20030;-65
2022/05/21 05:54:19;;;;;;;6.55;1.50;;;13.00;99.90;;;;;;5028736;28;20044;-65
2022/05/21 05:56:45;;;;;;;2.58;0.80;;;13.10;99.90;;;;;;5033774;28;20087;-65
2022/05/21 06:04:41;;;;;;;8.18;1.10;;;13.30;99.90;;;;;;5030503;28;20163;-65
2022/05/21 06:07:14;;;;;;;7.88;1.25;;;13.40;99.90;;;;;;5032968;28;20036;-65
2022/05/21 06:09:40;;;;;;;3.53;1.38;;;13.60;99.90;;;;;;5033521;28;20060;-65
2022/05/21 06:12:08;;;;;;;4.95;0.80;;;13.70;99.90;;;;;;5033720;28;20025;-65
2022/05/21 06:14:35;;;;;;;8.82;1.67;;;13.80;99.90;;;;;;5033674;28;20025;-65
2022/05/21 06:17:01;;;;;;;10.68;1.50;;;13.90;99.90;;;;;;5033652;28;20051;-65
2022/05/21 06:19:27;;;;;;;7.85;1.02;;;14.00;99.90;;;;;;5033459;28;20407;-64
2022/05/21 06:21:57;;;;;;;4.60;0.70;;;14.10;99.90;;;;;;5033801;28;20032;-65
2022/05/21 06:24:23;;;;;;;5.80;1.10;;;14.30;99.90;;;;;;5031347;28;20026;-65
2022/05/21 06:26:48;;;;;;;6.18;0.95;;;14.50;99.90;;;;;;5027719;28;20496;-65
2022/05/21 06:29:14;;;;;;;3.38;1.00;;;14.70;99.90;;;;;;5012319;28;20026;-64
2022/05/21 06:31:39;;;;;;;10.05;1.40;;;14.80;99.90;;;;;;5013593;28;20054;-65
2022/05/21 06:34:05;;;;;;;10.40;1.63;;;14.70;99.90;;;;;;5013508;28;20057;-64
2022/05/21 06:36:32;;;;;;;7.72;1.15;;;14.70;99.90;;;;;;5013473;28;20519;-64
2022/05/21 06:38:57;;;;;;;1.92;0.65;;;14.70;99.90;;;;;;5013519;28;20034;-64
2022/05/21 06:41:23;;;;;;;5.57;0.95;;;14.80;99.90;;;;;;5011882;28;20544;-64
2022/05/21 06:43:49;;;;;;;5.88;1.17;;;15.00;99.90;;;;;;5010148;28;20058;-64
2022/05/21 06:46:14;;;;;;;8.15;0.85;;;15.20;99.90;;;;;;5011072;28;20492;-64
2022/05/21 06:48:40;;;;;;;5.15;0.60;;;15.40;99.90;;;;;;5013196;28;20036;-64
2022/05/21 06:51:06;;;;;;;3.45;0.55;;;15.50;99.90;;;;;;5013053;28;20105;-64
2022/05/21 06:53:36;;;;;;;5.40;0.77;;;15.70;99.90;;;;;;5012929;28;20392;-65
2022/05/21 06:56:15;;;;;;;7.05;0.90;;;15.70;99.90;;;;;;5012876;28;20037;-64
2022/05/21 06:58:42;;;;;;;5.47;0.85;;;15.90;99.90;;;;;;5012744;28;20453;-64
2022/05/21 07:01:09;;;;;;;5.38;1.15;;;16.00;99.90;;;;;;5011976;28;20022;-64
2022/05/21 07:03:34;;;;;;;5.13;1.05;;;16.30;99.90;;;;;;5012368;28;20037;-64
2022/05/21 07:08:45;;;;;;;7.38;1.05;;;16.70;99.90;;;;;;5012859;28;20133;-64
2022/05/21 07:11:10;;;;;;;6.38;0.98;;;16.70;99.90;;;;;;5012586;28;20675;-64
2022/05/21 07:13:36;;;;;;;1.98;1.02;;;16.80;99.90;;;;;;5012683;28;20520;-64
2022/05/21 07:16:02;;;;;;;6.93;0.93;;;16.80;99.90;;;;;;5012589;28;20110;-64
2022/05/21 07:18:28;;;;;;;6.15;1.20;;;16.60;99.90;;;;;;5012776;28;20037;-64
2022/05/21 07:20:56;;;;;;;5.13;1.02;;;16.50;99.90;;;;;;5012652;28;20030;-64
2022/05/21 07:23:24;;;;;;;4.47;0.70;;;16.50;99.90;;;;;;4994935;28;20484;-63
2022/05/21 07:25:50;;;;;;;4.45;0.98;;;16.70;99.90;;;;;;5012273;28;20033;-65
2022/05/21 07:28:16;;;;;;;2.63;0.52;;;16.80;99.90;;;;;;5027100;28;20075;-64
2022/05/21 07:30:44;;;;;;;4.00;0.77;;;17.20;99.90;;;;;;5032138;28;20473;-64
2022/05/21 07:33:12;;;;;;;4.78;0.85;;;17.50;99.90;;;;;;5032261;28;20021;-64
2022/05/21 07:35:38;;;;;;;3.83;0.95;;;18.10;99.90;;;;;;5032002;28;20044;-63
2022/05/21 07:38:05;;;;;;;5.57;0.88;;;18.60;99.90;;;;;;5032261;28;20018;-64
2022/05/21 07:40:31;;;;;;;5.45;1.13;;;19.10;99.90;;;;;;5031755;28;20033;-63
2022/05/21 07:42:56;;;;;;;6.97;1.08;;;19.20;99.90;;;;;;5031914;28;20384;-63
2022/05/21 07:45:22;;;;;;;5.93;1.00;;;19.20;99.90;;;;;;5031616;28;20083;-63
2022/05/21 07:47:50;;;;;;;4.40;0.85;;;19.20;99.90;;;;;;5031702;28;20025;-63
2022/05/21 07:50:16;;;;;;;8.68;1.02;;;19.30;99.90;;;;;;5028693;28;20025;-63
2022/05/21 07:52:43;;;;;;;4.07;0.80;;;19.80;99.90;;;;;;5031719;28;20037;-63
2022/05/21 07:55:09;;;;;;;6.05;0.85;;;20.40;99.90;;;;;;5031458;28;20349;-63
2022/05/21 07:57:35;;;;;;;4.65;0.90;;;20.70;98.50;;;;;;5028946;28;20022;-63
2022/05/21 08:00:02;;;;;;;2.00;0.90;;;21.00;97.70;;;;;;5028389;28;20499;-63
2022/05/21 08:02:28;;;;;;;3.15;1.38;;;21.70;97.20;;;;;;5030685;28;20376;-64
2022/05/21 08:04:54;;;;;;;8.85;0.90;;;22.10;96.40;;;;;;5031632;28;20045;-65
2022/05/21 08:07:21;;;;;;;3.97;0.95;;;22.30;93.80;;;;;;5031853;28;20032;-64
2022/05/21 08:09:47;;;;;;;3.25;0.63;;;22.50;93.80;;;;;;5031247;28;20033;-63
2022/05/21 08:12:14;;;;;;;3.60;0.85;;;22.80;92.90;;;;;;5031243;28;20043;-64
2022/05/21 08:14:41;;;;;;;4.07;0.80;;;22.60;93.60;;;;;;5031216;28;20079;-64
2022/05/21 08:17:08;;;;;;;3.15;0.60;;;22.80;93.70;;;;;;5031190;28;20025;-65
2022/05/21 08:19:34;;;;;;;3.63;0.45;;;22.90;91.40;;;;;;5029927;28;20032;-64
2022/05/21 08:26:56;;;;;;;3.47;0.80;;;22.40;92.40;;;;;;5030939;28;20025;-64
2022/05/21 08:27:29;;;;;;;4.60;0.80;;;22.40;91.80;;;;;;5019356;28;20111;-65
2022/05/21 08:29:55;;;;;;;2.60;0.82;;;22.70;91.70;;;;;;5008658;28;20376;-65
2022/05/21 08:32:21;;;;;;;4.72;0.70;;;22.30;91.30;;;;;;5008017;28;20014;-65
2022/05/21 08:34:46;;;;;;;4.95;0.90;;;22.60;92.20;;;;;;5007833;28;20455;-64
2022/05/21 08:37:12;;;;;;;4.82;0.93;;;22.00;91.90;;;;;;5008246;28;20030;-65
2022/05/21 08:39:38;;;;;;;3.75;0.77;;;22.60;92.10;;;;;;5007938;28;20042;-65
2022/05/21 08:42:13;;;;;;;5.05;0.98;;;23.60;91.90;;;;;;5008036;28;20024;-65
2022/05/21 08:44:49;;;;;;;4.45;0.57;;;24.60;87.50;;;;;;5007875;28;20037;-65
2022/05/21 08:47:26;;;;;;;2.20;0.50;;;24.90;82.70;;;;;;5007697;28;20036;-65
2022/05/21 08:50:08;;;;;;;3.25;0.90;;;25.10;78.80;;;;;;5007800;28;20511;-65
2022/05/21 08:52:49;;;;;;;3.67;0.60;;;24.90;80.00;;;;;;5007857;28;20037;-66
2022/05/21 08:55:20;;;;;;;3.40;0.80;;;25.00;77.80;;;;;;5007772;28;20062;-66
2022/05/21 08:57:51;;;;;;;4.85;1.08;;;25.10;77.80;;;;;;5007128;28;20037;-66
2022/05/21 09:00:22;;;;;;;4.82;1.02;;;25.40;75.20;;;;;;5007442;28;20045;-65
2022/05/21 09:02:48;;;;;;;4.45;0.68;;;25.60;74.60;;;;;;5007276;28;20465;-65
2022/05/21 09:05:16;;;;;;;3.10;0.65;;;25.20;75.00;;;;;;5007678;28;20037;-65
2022/05/21 09:08:07;;;;;;;6.60;0.98;;;25.20;76.80;;;;;;5007332;28;20034;-65
2022/05/21 09:10:55;;;;;;;2.78;0.60;;;24.70;79.00;;;;;;5007117;28;20033;-65
2022/05/21 09:13:41;;;;;;;1.95;0.70;;;23.90;79.00;;;;;;5009944;28;20080;-65
2022/05/21 09:18:56;;;;;;;4.85;1.00;;;23.50;75.40;;;;;;5007156;28;20655;-65
2022/05/21 09:21:24;;;;;;;4.47;1.02;;;23.30;78.50;;;;;;5007086;28;20025;-66
2022/05/21 09:23:59;;;;;;;4.38;0.90;;;24.00;81.10;;;;;;5007515;28;20029;-66
2022/05/21 09:26:43;;;;;;;2.60;0.80;;;23.50;80.80;;;;;;5007045;28;20623;-66
2022/05/21 09:29:27;;;;;;;4.13;0.85;;;23.60;82.10;;;;;;5006849;28;20076;-66
2022/05/21 09:31:54;;;;;;;5.00;0.98;;;23.70;80.40;;;;;;5027082;28;20033;-66
2022/05/21 09:34:32;;;;;;;2.70;0.50;;;24.50;81.20;;;;;;5026754;28;20028;-66
2022/05/21 09:37:00;;;;;;;3.00;0.65;;;25.60;75.10;;;;;;5026942;28;20037;-66
2022/05/21 09:39:29;;;;;;;2.95;0.50;;;26.20;71.10;;;;;;5026630;28;20030;-66
2022/05/21 09:45:25;;;;;;;3.17;0.63;;;25.50;71.30;;;;;;5014158;28;20072;-64
2022/05/21 09:48:15;;;;;;;3.92;0.63;;;24.60;70.50;;;;;;5026760;28;20506;-64
2022/05/21 09:50:45;;;;;;;3.80;0.90;;;25.30;73.70;;;;;;5014182;28;20468;-65
2022/05/21 09:53:30;;;;;;;;;;;25.00;72.80;;;;;;5025875;28;20048;-65
2022/05/21 09:56:08;;;;;;;2.97;0.63;;;25.00;71.00;;;;;;5026431;28;19911;-64
2022/05/21 09:58:43;;;;;;;2.38;0.85;;;25.60;69.30;;;;;;5026210;28;20045;-64
2022/05/21 10:01:17;;;;;;;4.50;1.30;;;26.30;65.80;;;;;;5026435;28;20017;-66
2022/05/21 10:03:49;;;;;;;3.13;0.98;;;27.60;63.80;;;;;;5026433;28;20025;-69
2022/05/21 10:06:29;;;;;;;4.18;0.95;;;28.30;58.20;;;;;;5026733;28;20508;-69
2022/05/21 10:12:16;;;;;;;3.72;0.70;;;30.10;53.10;;;;;;5026654;28;20083;-66
2022/05/21 10:14:51;;;;;;;3.97;0.68;;;31.20;46.60;;;;;;5026676;28;20030;-67
2022/05/21 10:17:33;;;;;;;3.17;0.45;;;31.40;40.20;;;;;;5026671;28;20060;-67
2022/05/21 10:20:21;;;;;;;4.03;0.70;;;32.70;38.90;;;;;;5026524;28;20042;-67
2022/05/21 10:23:15;;;;;;;5.10;0.90;;;32.40;35.10;;;;;;5026343;28;20022;-68
2022/05/21 10:25:59;;;;;;;1.88;0.50;;;33.00;29.40;;;;;;5026422;28;20079;-69
2022/05/21 10:29:06;;;;;;;3.58;0.60;;;31.90;29.80;;;;;;5026654;28;20032;-69
2022/05/21 10:31:47;;;;;;;1.88;0.60;;;33.60;31.80;;;;;;5026095;28;20083;-69
2022/05/21 10:34:21;;;;;;;4.78;0.93;;;34.60;27.00;;;;;;5026326;28;20505;-67
2022/05/21 10:36:56;;;;;;;5.82;0.80;;;34.10;26.10;;;;;;5026315;28;20048;-67
2022/05/21 10:39:42;;;;;;;3.03;0.70;;;34.00;25.00;;;;;;5026203;28;20484;-72
2022/05/21 10:42:32;;;;;;;2.80;0.57;;;33.90;26.80;;;;;;5027838;28;20030;-74
2022/05/21 10:44:58;;;;;;;;;;;35.40;26.00;;;;;;5030627;28;20017;-68
2022/05/21 10:47:35;;;;;;;3.45;0.85;;;34.70;23.50;;;;;;5029914;28;20330;-72
2022/05/21 10:50:26;;;;;;;3.35;0.40;;;34.10;22.10;;;;;;5029652;28;20152;-71
2022/05/21 10:52:51;;;;;;;;;;;34.20;21.50;;;;;;5030003;28;20026;-71
2022/05/21 10:55:30;;;;;;;2.80;0.68;;;35.20;21.20;;;;;;5029304;28;19963;-72
2022/05/21 10:58:26;;;;;;;2.08;0.68;;;35.30;22.30;;;;;;5029362;28;20029;-67
2022/05/21 11:01:13;;;;;;;1.63;0.55;;;34.50;20.70;;;;;;5029610;28;20061;-72
2022/05/21 11:03:38;;;;;;;2.95;0.55;;;35.50;21.30;;;;;;5029652;28;20051;-71
2022/05/21 11:06:39;;;;;;;3.17;1.02;;;36.50;20.50;;;;;;5029778;28;20037;-71
2022/05/21 11:09:28;;;;;;;3.78;0.60;;;36.50;21.40;;;;;;5025948;28;20041;-74
2022/05/21 11:12:04;;;;;;;1.42;0.38;;;37.20;18.60;;;;;;5029568;28;20018;-73
2022/05/21 11:14:51;;;;;;;2.53;0.60;;;36.10;17.90;;;;;;5011565;28;20487;-73
2022/05/21 11:17:22;;;;;;;2.65;0.80;;;33.10;19.00;;;;;;5029323;28;20033;-74
2022/05/21 11:20:06;;;;;;;2.35;0.85;;;33.80;20.60;;;;;;5029356;28;20103;-73
2022/05/21 11:22:52;;;;;;;2.75;0.82;;;34.30;21.00;;;;;;5017471;28;20030;-71
2022/05/21 11:25:21;;;;;;;3.92;0.90;;;34.70;20.30;;;;;;5009136;28;20108;-71
2022/05/21 11:28:09;;;;;;;1.77;0.57;;;35.10;21.40;;;;;;5009230;28;20093;-72
2022/05/21 11:30:35;;;;;;;3.05;0.55;;;35.90;20.60;;;;;;5009333;28;20030;-71
2022/05/21 11:38:46;;;;;;;4.10;1.05;;;35.60;22.20;;;;;;5008807;28;20555;-72
2022/05/21 11:41:29;;;;;;;5.53;0.70;;;36.50;22.20;;;;;;5008889;28;20037;-72
2022/05/21 11:47:06;;;;;;;3.33;1.10;;;36.60;22.20;;;;;;5011376;28;20114;-70
2022/05/21 11:49:37;;;;;;;2.97;1.05;;;34.60;21.80;;;;;;5008925;28;20045;-68
2022/05/21 11:52:27;;;;;;;2.05;0.90;;;34.90;22.00;;;;;;5008928;28;20208;-68
2022/05/21 11:54:53;;;;;;;;;;;35.10;22.30;;;;;;5009120;28;20543;-67
2022/05/21 11:57:38;;;;;;;1.77;0.60;;;34.90;21.30;;;;;;5015328;28;20052;-68
2022/05/21 12:00:07;;;;;;;5.93;1.00;;;34.40;20.90;;;;;;5028192;28;20057;-69
2022/05/21 12:02:36;;;;;;;3.88;1.08;;;34.00;22.80;;;;;;5028122;28;20025;-68
2022/05/21 12:05:05;;;;;;;2.58;0.57;;;34.10;21.90;;;;;;5028676;28;20094;-69
2022/05/21 12:07:47;;;;;;;4.97;1.13;;;33.30;21.80;;;;;;5028655;28;20044;-69
2022/05/21 12:10:17;;;;;;;5.28;0.98;;;32.60;22.90;;;;;;5027830;28;20032;-69
2022/05/21 12:13:02;;;;;;;;;;;33.30;21.50;;;;;;5010793;28;20462;-69
2022/05/21 12:15:49;;;;;;;5.07;0.90;;;33.20;21.70;;;;;;5028801;28;19917;-70
2022/05/21 12:18:35;;;;;;;4.43;0.82;;;31.80;22.80;;;;;;5027260;28;20029;-70
2022/05/21 12:21:02;;;;;;;4.70;0.85;;;33.30;23.50;;;;;;5026844;28;20103;-72
2022/05/21 12:23:33;;;;;;;4.93;1.05;;;32.90;24.10;;;;;;5028055;28;20120;-71
2022/05/21 12:26:00;;;;;;;2.75;0.70;;;32.20;23.90;;;;;;5027346;28;20609;-68
2022/05/21 12:28:44;;;;;;;7.00;1.00;;;32.40;24.10;;;;;;5011134;28;20444;-69
2022/05/21 12:31:23;;;;;;;2.33;0.68;;;32.80;25.00;;;;;;5007906;28;20033;-72
2022/05/21 12:34:23;;;;;;;6.43;1.15;;;32.90;24.50;;;;;;5007938;28;20496;-71
2022/05/21 12:36:58;;;;;;;1.63;0.70;;;32.60;24.00;;;;;;5007749;28;20022;-72
2022/05/21 12:39:52;;;;;;;3.10;0.73;;;31.90;23.80;;;;;;5007746;28;20041;-75
2022/05/21 12:42:46;;;;;;;4.47;0.70;;;33.00;23.90;;;;;;5007905;28;20133;-71
2022/05/21 12:45:28;;;;;;;4.65;0.82;;;33.10;22.50;;;;;;5007626;28;20377;-71
2022/05/21 12:48:04;;;;;;;4.78;1.10;;;31.40;23.40;;;;;;4990143;28;20489;-74
2022/05/21 12:50:30;;;;;;;7.72;0.98;;;32.40;23.80;;;;;;5007794;28;20682;-72
2022/05/21 12:52:57;;;;;;;4.22;1.48;;;31.90;24.10;;;;;;5007576;28;20026;-72
2022/05/21 12:55:29;;;;;;;4.38;1.25;;;32.40;23.30;;;;;;5007125;28;20382;-72
2022/05/21 12:58:20;;;;;;;4.00;1.38;;;32.20;23.40;;;;;;5007528;28;20104;-72
2022/05/21 13:00:54;;;;;;;3.85;1.00;;;32.40;23.70;;;;;;4998162;28;20073;-72
2022/05/21 13:03:22;;;;;;;6.18;1.00;;;31.70;22.80;;;;;;5007624;28;20034;-72
2022/05/21 13:06:05;;;;;;;3.05;1.00;;;31.60;24.50;;;;;;5006657;28;20030;-73
2022/05/21 13:08:33;;;;;;;2.53;1.08;;;29.90;25.90;;;;;;5007585;28;20029;-71
2022/05/21 13:11:06;;;;;;;4.18;0.95;;;30.60;27.60;;;;;;5007408;28;20032;-71
2022/05/21 13:13:35;;;;;;;5.10;0.90;;;30.90;26.40;;;;;;5008417;28;20037;-74
2022/05/21 13:16:14;;;;;;;3.78;0.73;;;30.70;26.10;;;;;;5024212;28;20267;-72
2022/05/21 13:18:57;;;;;;;4.97;0.98;;;30.00;25.80;;;;;;5026842;28;20065;-72
2022/05/21 13:21:43;;;;;;;4.65;1.20;;;28.40;27.20;;;;;;5027242;28;20045;-72
2022/05/21 13:24:36;;;;;;;3.72;1.15;;;28.10;27.20;;;;;;5027359;28;20053;-72
2022/05/21 13:27:08;;;;;;;3.85;0.70;;;28.60;30.30;;;;;;5022219;28;20132;-72
2022/05/21 13:29:35;;;;;;;6.72;1.10;;;28.40;29.60;;;;;;5007090;28;20034;-72
2022/05/21 13:32:21;;;;;;;5.63;0.98;;;27.50;30.30;;;;;;5006937;28;20084;-72
2022/05/21 13:34:47;;;;;;;6.65;1.70;;;26.50;32.20;;;;;;5007152;28;20132;-72
2022/05/21 13:37:13;;;;;;;7.22;1.25;;;26.20;33.10;;;;;;5009627;28;20029;-72